sensor_id;sensor_type;location;lat;lon;timestamp;P1;durP1;ratioP1;P2;durP2;ratioP2
9892;SDS011;4985;49.092;8.542;2024-03-23T00:55:48;7.80;;;2.87;;
9892;SDS011;4985;49.092;8.542;2024-03-23T00:58:14;4.27;;;3.00;;
9892;SDS011;4985;49.092;8.542;2024-03-23T01:00:39;5.00;;;3.00;;
9892;SDS011;4985;49.092;8.542;2024-03-23T01:03:04;3.73;;;2.53;;
9892;SDS011;4985;49.092;8.542;2024-03-23T01:05:30;3.17;;;2.83;;
9892;SDS011;4985;49.092;8.542;2024-03-23T01:07:56;4.30;;;2.43;;
9892;SDS011;4985;49.092;8.542;2024-03-23T01:10:21;5.37;;;2.90;;
9892;SDS011;4985;49.092;8.542;2024-03-23T01:12:46;3.47;;;2.80;;
9892;SDS011;4985;49.092;8.542;2024-03-23T01:15:12;5.87;;;3.13;;
9892;SDS011;4985;49.092;8.542;2024-03-23T01:17:37;3.67;;;2.70;;
9892;SDS011;4985;49.092;8.542;2024-03-23T01:20:02;5.87;;;3.10;;
9892;SDS011;4985;49.092;8.542;2024-03-23T01:22:29;4.27;;;2.77;;
9892;SDS011;4985;49.092;8.542;2024-03-23T01:24:54;4.37;;;3.07;;
9892;SDS011;4985;49.092;8.542;2024-03-23T01:27:20;5.13;;;3.00;;
9892;SDS011;4985;49.092;8.542;2024-03-23T01:29:45;2.87;;;2.33;;
9892;SDS011;4985;49.092;8.542;2024-03-23T01:32:10;4.87;;;2.83;;
9892;SDS011;4985;49.092;8.542;2024-03-23T01:34:36;4.03;;;2.50;;
9892;SDS011;4985;49.092;8.542;2024-03-23T01:37:01;3.83;;;2.60;;
9892;SDS011;4985;49.092;8.542;2024-03-23T01:39:26;4.40;;;2.93;;
9892;SDS011;4985;49.092;8.542;2024-03-23T01:41:52;5.27;;;3.10;;
9892;SDS011;4985;49.092;8.542;2024-03-23T01:44:17;3.33;;;2.60;;
9892;SDS011;4985;49.092;8.542;2024-03-23T01:46:43;4.17;;;3.73;;
9892;SDS011;4985;49.092;8.542;2024-03-23T01:49:09;3.33;;;2.73;;
9892;SDS011;4985;49.092;8.542;2024-03-23T01:51:36;3.67;;;2.80;;
9892;SDS011;4985;49.092;8.542;2024-03-23T01:54:02;4.23;;;2.63;;
9892;SDS011;4985;49.092;8.542;2024-03-23T01:56:31;4.07;;;2.77;;
9892;SDS011;4985;49.092;8.542;2024-03-23T01:59:04;6.57;;;3.00;;
9892;SDS011;4985;49.092;8.542;2024-03-23T02:01:30;3.97;;;2.67;;
9892;SDS011;4985;49.092;8.542;2024-03-23T02:03:56;2.70;;;2.40;;
9892;SDS011;4985;49.092;8.542;2024-03-23T02:06:21;3.83;;;2.00;;
9892;SDS011;4985;49.092;8.542;2024-03-23T02:08:47;3.70;;;2.40;;
9892;SDS011;4985;49.092;8.542;2024-03-23T02:11:13;4.17;;;2.17;;
9892;SDS011;4985;49.092;8.542;2024-03-23T02:13:38;3.47;;;2.40;;
9892;SDS011;4985;49.092;8.542;2024-03-23T02:16:04;4.13;;;2.20;;
9892;SDS011;4985;49.092;8.542;2024-03-23T02:18:30;3.73;;;2.30;;
9892;SDS011;4985;49.092;8.542;2024-03-23T02:20:55;2.97;;;2.40;;
9892;SDS011;4985;49.092;8.542;2024-03-23T02:23:21;3.90;;;2.50;;
9892;SDS011;4985;49.092;8.542;2024-03-23T02:25:46;3.63;;;2.60;;
9892;SDS011;4985;49.092;8.542;2024-03-23T02:28:12;3.17;;;2.30;;
9892;SDS011;4985;49.092;8.542;2024-03-23T02:30:37;2.93;;;2.17;;
9892;SDS011;4985;49.092;8.542;2024-03-23T02:33:03;3.57;;;1.97;;
9892;SDS011;4985;49.092;8.542;2024-03-23T02:35:29;4.80;;;2.43;;
9892;SDS011;4985;49.092;8.542;2024-03-23T02:37:54;2.20;;;2.00;;
9892;SDS011;4985;49.092;8.542;2024-03-23T02:40:22;3.40;;;2.03;;
9892;SDS011;4985;49.092;8.542;2024-03-23T02:42:48;2.57;;;1.93;;
9892;SDS011;4985;49.092;8.542;2024-03-23T02:45:13;3.43;;;2.10;;
9892;SDS011;4985;49.092;8.542;2024-03-23T02:47:39;4.17;;;2.37;;
9892;SDS011;4985;49.092;8.542;2024-03-23T02:50:04;2.60;;;2.00;;
9892;SDS011;4985;49.092;8.542;2024-03-23T02:52:30;2.73;;;2.10;;
9892;SDS011;4985;49.092;8.542;2024-03-23T02:54:56;3.57;;;2.20;;
9892;SDS011;4985;49.092;8.542;2024-03-23T02:57:21;3.57;;;2.40;;
9892;SDS011;4985;49.092;8.542;2024-03-23T02:59:47;5.13;;;2.50;;
9892;SDS011;4985;49.092;8.542;2024-03-23T03:02:13;2.57;;;2.20;;
9892;SDS011;4985;49.092;8.542;2024-03-23T03:04:39;3.63;;;2.53;;
9892;SDS011;4985;49.092;8.542;2024-03-23T03:07:04;5.87;;;2.50;;
9892;SDS011;4985;49.092;8.542;2024-03-23T03:09:30;4.43;;;2.77;;
9892;SDS011;4985;49.092;8.542;2024-03-23T03:11:55;3.57;;;2.77;;
9892;SDS011;4985;49.092;8.542;2024-03-23T03:14:20;2.67;;;2.13;;
9892;SDS011;4985;49.092;8.542;2024-03-23T03:16:46;3.70;;;2.50;;
9892;SDS011;4985;49.092;8.542;2024-03-23T03:19:11;3.67;;;2.20;;
9892;SDS011;4985;49.092;8.542;2024-03-23T03:21:36;4.40;;;2.90;;
9892;SDS011;4985;49.092;8.542;2024-03-23T03:24:02;4.97;;;2.97;;
9892;SDS011;4985;49.092;8.542;2024-03-23T03:26:28;3.90;;;3.50;;
9892;SDS011;4985;49.092;8.542;2024-03-23T03:28:53;4.70;;;4.00;;
9892;SDS011;4985;49.092;8.542;2024-03-23T03:31:18;5.50;;;3.93;;
9892;SDS011;4985;49.092;8.542;2024-03-23T03:33:44;4.53;;;3.37;;
9892;SDS011;4985;49.092;8.542;2024-03-23T03:36:10;4.87;;;3.80;;
9892;SDS011;4985;49.092;8.542;2024-03-23T03:38:35;8.73;;;3.43;;
9892;SDS011;4985;49.092;8.542;2024-03-23T03:41:01;4.60;;;3.77;;
9892;SDS011;4985;49.092;8.542;2024-03-23T03:43:27;4.67;;;3.70;;
9892;SDS011;4985;49.092;8.542;2024-03-23T03:45:53;4.73;;;3.70;;
9892;SDS011;4985;49.092;8.542;2024-03-23T03:48:19;5.27;;;3.73;;
9892;SDS011;4985;49.092;8.542;2024-03-23T03:50:44;5.50;;;4.53;;
9892;SDS011;4985;49.092;8.542;2024-03-23T03:53:10;6.17;;;3.97;;
9892;SDS011;4985;49.092;8.542;2024-03-23T03:55:36;6.87;;;4.10;;
9892;SDS011;4985;49.092;8.542;2024-03-23T03:58:01;8.90;;;4.57;;
9892;SDS011;4985;49.092;8.542;2024-03-23T04:00:26;8.00;;;4.87;;
9892;SDS011;4985;49.092;8.542;2024-03-23T04:02:52;6.07;;;4.60;;
9892;SDS011;4985;49.092;8.542;2024-03-23T04:05:17;6.23;;;4.10;;
9892;SDS011;4985;49.092;8.542;2024-03-23T04:07:42;5.13;;;3.90;;
9892;SDS011;4985;49.092;8.542;2024-03-23T04:10:08;5.10;;;4.53;;
9892;SDS011;4985;49.092;8.542;2024-03-23T04:12:33;6.40;;;4.03;;
9892;SDS011;4985;49.092;8.542;2024-03-23T04:14:59;6.50;;;4.37;;
9892;SDS011;4985;49.092;8.542;2024-03-23T04:17:26;7.17;;;4.67;;
9892;SDS011;4985;49.092;8.542;2024-03-23T04:19:56;7.10;;;4.57;;
9892;SDS011;4985;49.092;8.542;2024-03-23T04:22:22;7.87;;;5.00;;
9892;SDS011;4985;49.092;8.542;2024-03-23T04:24:49;9.03;;;5.30;;
9892;SDS011;4985;49.092;8.542;2024-03-23T04:27:14;6.47;;;4.53;;
9892;SDS011;4985;49.092;8.542;2024-03-23T04:29:39;5.50;;;4.60;;
9892;SDS011;4985;49.092;8.542;2024-03-23T04:32:05;7.13;;;4.70;;
9892;SDS011;4985;49.092;8.542;2024-03-23T04:34:30;8.73;;;5.13;;
9892;SDS011;4985;49.092;8.542;2024-03-23T04:36:57;8.43;;;5.53;;
9892;SDS011;4985;49.092;8.542;2024-03-23T04:39:23;8.17;;;6.30;;
9892;SDS011;4985;49.092;8.542;2024-03-23T04:41:48;8.47;;;5.83;;
9892;SDS011;4985;49.092;8.542;2024-03-23T04:44:14;8.77;;;6.37;;
9892;SDS011;4985;49.092;8.542;2024-03-23T04:46:39;8.97;;;5.77;;
9892;SDS011;4985;49.092;8.542;2024-03-23T04:49:05;7.17;;;5.20;;
9892;SDS011;4985;49.092;8.542;2024-03-23T04:51:35;7.83;;;5.87;;
9892;SDS011;4985;49.092;8.542;2024-03-23T04:54:02;10.43;;;5.87;;
9892;SDS011;4985;49.092;8.542;2024-03-23T04:56:27;7.83;;;5.73;;
9892;SDS011;4985;49.092;8.542;2024-03-23T04:58:52;7.57;;;6.20;;
9892;SDS011;4985;49.092;8.542;2024-03-23T05:01:18;9.73;;;5.03;;
9892;SDS011;4985;49.092;8.542;2024-03-23T05:03:43;7.33;;;5.17;;
9892;SDS011;4985;49.092;8.542;2024-03-23T05:06:09;8.20;;;5.40;;
9892;SDS011;4985;49.092;8.542;2024-03-23T05:08:34;6.27;;;5.67;;
9892;SDS011;4985;49.092;8.542;2024-03-23T05:10:59;5.47;;;4.40;;
9892;SDS011;4985;49.092;8.542;2024-03-23T05:13:25;5.63;;;4.20;;
9892;SDS011;4985;49.092;8.542;2024-03-23T05:15:51;6.03;;;5.27;;
9892;SDS011;4985;49.092;8.542;2024-03-23T05:18:20;5.37;;;4.37;;
9892;SDS011;4985;49.092;8.542;2024-03-23T05:20:46;5.93;;;4.33;;
9892;SDS011;4985;49.092;8.542;2024-03-23T05:23:11;5.53;;;4.20;;
9892;SDS011;4985;49.092;8.542;2024-03-23T05:25:36;6.57;;;4.73;;
9892;SDS011;4985;49.092;8.542;2024-03-23T05:28:02;4.97;;;3.80;;
9892;SDS011;4985;49.092;8.542;2024-03-23T05:30:27;7.37;;;4.93;;
9892;SDS011;4985;49.092;8.542;2024-03-23T05:32:53;5.27;;;4.60;;
9892;SDS011;4985;49.092;8.542;2024-03-23T05:35:19;6.27;;;4.10;;
9892;SDS011;4985;49.092;8.542;2024-03-23T05:37:44;5.07;;;4.17;;
9892;SDS011;4985;49.092;8.542;2024-03-23T05:40:10;4.57;;;3.83;;
9892;SDS011;4985;49.092;8.542;2024-03-23T05:42:37;4.27;;;3.87;;
9892;SDS011;4985;49.092;8.542;2024-03-23T05:45:03;4.80;;;4.13;;
9892;SDS011;4985;49.092;8.542;2024-03-23T05:47:31;5.47;;;3.73;;
9892;SDS011;4985;49.092;8.542;2024-03-23T05:49:57;4.57;;;3.73;;
9892;SDS011;4985;49.092;8.542;2024-03-23T05:52:22;3.50;;;2.97;;
9892;SDS011;4985;49.092;8.542;2024-03-23T05:54:50;3.93;;;2.83;;
9892;SDS011;4985;49.092;8.542;2024-03-23T05:57:15;4.83;;;3.07;;
9892;SDS011;4985;49.092;8.542;2024-03-23T05:59:41;3.40;;;2.83;;
9892;SDS011;4985;49.092;8.542;2024-03-23T06:02:06;4.30;;;3.13;;
9892;SDS011;4985;49.092;8.542;2024-03-23T06:04:32;3.77;;;2.83;;
9892;SDS011;4985;49.092;8.542;2024-03-23T06:06:57;3.33;;;2.43;;
9892;SDS011;4985;49.092;8.542;2024-03-23T06:09:22;1.90;;;1.70;;
9892;SDS011;4985;49.092;8.542;2024-03-23T06:11:48;1.70;;;1.20;;
9892;SDS011;4985;49.092;8.542;2024-03-23T06:14:13;0.70;;;0.70;;
9892;SDS011;4985;49.092;8.542;2024-03-23T06:16:39;1.13;;;1.00;;
9892;SDS011;4985;49.092;8.542;2024-03-23T06:19:04;1.20;;;1.10;;
9892;SDS011;4985;49.092;8.542;2024-03-23T06:21:31;1.47;;;0.83;;
9892;SDS011;4985;49.092;8.542;2024-03-23T06:23:57;1.00;;;0.90;;
9892;SDS011;4985;49.092;8.542;2024-03-23T06:26:23;1.50;;;0.90;;
9892;SDS011;4985;49.092;8.542;2024-03-23T06:28:48;0.60;;;0.60;;
9892;SDS011;4985;49.092;8.542;2024-03-23T06:31:14;0.90;;;0.90;;
9892;SDS011;4985;49.092;8.542;2024-03-23T06:33:39;0.90;;;0.80;;
9892;SDS011;4985;49.092;8.542;2024-03-23T06:36:10;1.07;;;0.80;;
9892;SDS011;4985;49.092;8.542;2024-03-23T06:38:36;0.77;;;0.73;;
9892;SDS011;4985;49.092;8.542;2024-03-23T06:41:03;0.87;;;0.80;;
9892;SDS011;4985;49.092;8.542;2024-03-23T06:43:29;1.07;;;0.70;;
9892;SDS011;4985;49.092;8.542;2024-03-23T06:45:55;0.70;;;0.70;;
9892;SDS011;4985;49.092;8.542;2024-03-23T06:48:20;0.60;;;0.60;;
9892;SDS011;4985;49.092;8.542;2024-03-23T06:50:46;0.60;;;0.60;;
9892;SDS011;4985;49.092;8.542;2024-03-23T06:53:12;0.60;;;0.60;;
9892;SDS011;4985;49.092;8.542;2024-03-23T06:55:38;1.00;;;1.00;;
9892;SDS011;4985;49.092;8.542;2024-03-23T06:58:04;0.57;;;0.57;;
9892;SDS011;4985;49.092;8.542;2024-03-23T07:00:29;0.87;;;0.87;;
9892;SDS011;4985;49.092;8.542;2024-03-23T07:02:55;1.70;;;0.73;;
9892;SDS011;4985;49.092;8.542;2024-03-23T07:05:20;0.80;;;0.80;;
9892;SDS011;4985;49.092;8.542;2024-03-23T07:07:46;0.70;;;0.70;;
9892;SDS011;4985;49.092;8.542;2024-03-23T07:10:11;0.80;;;0.80;;
9892;SDS011;4985;49.092;8.542;2024-03-23T07:12:37;1.83;;;0.80;;
9892;SDS011;4985;49.092;8.542;2024-03-23T07:15:02;0.60;;;0.60;;
9892;SDS011;4985;49.092;8.542;2024-03-23T07:17:28;1.00;;;0.70;;
9892;SDS011;4985;49.092;8.542;2024-03-23T07:19:53;0.73;;;0.73;;
9892;SDS011;4985;49.092;8.542;2024-03-23T07:22:18;1.00;;;0.80;;
9892;SDS011;4985;49.092;8.542;2024-03-23T07:24:44;0.70;;;0.70;;
9892;SDS011;4985;49.092;8.542;2024-03-23T07:27:09;0.60;;;0.60;;
9892;SDS011;4985;49.092;8.542;2024-03-23T07:29:35;0.70;;;0.70;;
9892;SDS011;4985;49.092;8.542;2024-03-23T07:32:01;0.60;;;0.60;;
9892;SDS011;4985;49.092;8.542;2024-03-23T07:34:26;0.60;;;0.60;;
9892;SDS011;4985;49.092;8.542;2024-03-23T07:36:52;0.60;;;0.60;;
9892;SDS011;4985;49.092;8.542;2024-03-23T07:39:17;3.90;;;1.07;;
9892;SDS011;4985;49.092;8.542;2024-03-23T07:41:46;1.93;;;0.70;;
9892;SDS011;4985;49.092;8.542;2024-03-23T07:44:11;0.50;;;0.50;;
9892;SDS011;4985;49.092;8.542;2024-03-23T07:46:37;0.40;;;0.40;;
9892;SDS011;4985;49.092;8.542;2024-03-23T07:49:03;0.50;;;0.50;;
9892;SDS011;4985;49.092;8.542;2024-03-23T07:51:29;0.50;;;0.50;;
9892;SDS011;4985;49.092;8.542;2024-03-23T07:53:55;0.67;;;0.60;;
9892;SDS011;4985;49.092;8.542;2024-03-23T07:56:20;0.60;;;0.60;;
9892;SDS011;4985;49.092;8.542;2024-03-23T07:58:46;0.50;;;0.50;;
9892;SDS011;4985;49.092;8.542;2024-03-23T08:01:13;0.67;;;0.50;;
9892;SDS011;4985;49.092;8.542;2024-03-23T08:03:40;0.50;;;0.50;;
9892;SDS011;4985;49.092;8.542;2024-03-23T08:06:16;0.43;;;0.43;;
9892;SDS011;4985;49.092;8.542;2024-03-23T08:08:45;0.60;;;0.60;;
9892;SDS011;4985;49.092;8.542;2024-03-23T08:11:11;1.43;;;0.80;;
9892;SDS011;4985;49.092;8.542;2024-03-23T08:13:40;1.03;;;0.70;;
9892;SDS011;4985;49.092;8.542;2024-03-23T08:16:07;1.03;;;0.60;;
9892;SDS011;4985;49.092;8.542;2024-03-23T08:18:37;2.40;;;0.90;;
9892;SDS011;4985;49.092;8.542;2024-03-23T08:21:03;2.13;;;1.13;;
9892;SDS011;4985;49.092;8.542;2024-03-23T08:23:30;1.47;;;0.87;;
9892;SDS011;4985;49.092;8.542;2024-03-23T08:26:01;1.87;;;0.77;;
9892;SDS011;4985;49.092;8.542;2024-03-23T08:28:27;3.07;;;1.30;;
9892;SDS011;4985;49.092;8.542;2024-03-23T08:30:53;3.43;;;1.43;;
9892;SDS011;4985;49.092;8.542;2024-03-23T08:33:19;2.07;;;1.13;;
9892;SDS011;4985;49.092;8.542;2024-03-23T08:35:55;3.37;;;1.10;;
9892;SDS011;4985;49.092;8.542;2024-03-23T08:38:25;1.70;;;1.30;;
9892;SDS011;4985;49.092;8.542;2024-03-23T08:40:58;4.10;;;1.40;;
9892;SDS011;4985;49.092;8.542;2024-03-23T08:43:24;11.07;;;1.83;;
9892;SDS011;4985;49.092;8.542;2024-03-23T08:45:50;2.90;;;1.37;;
9892;SDS011;4985;49.092;8.542;2024-03-23T08:48:15;3.17;;;1.40;;
9892;SDS011;4985;49.092;8.542;2024-03-23T08:50:41;3.90;;;1.70;;
9892;SDS011;4985;49.092;8.542;2024-03-23T08:53:06;5.00;;;1.83;;
9892;SDS011;4985;49.092;8.542;2024-03-23T08:55:31;3.33;;;1.60;;
9892;SDS011;4985;49.092;8.542;2024-03-23T08:57:57;4.37;;;1.70;;
9892;SDS011;4985;49.092;8.542;2024-03-23T09:00:22;3.20;;;1.80;;
9892;SDS011;4985;49.092;8.542;2024-03-23T09:02:47;1.97;;;1.60;;
9892;SDS011;4985;49.092;8.542;2024-03-23T09:05:13;5.07;;;2.23;;
9892;SDS011;4985;49.092;8.542;2024-03-23T09:07:38;4.17;;;1.90;;
9892;SDS011;4985;49.092;8.542;2024-03-23T09:10:04;4.33;;;1.87;;
9892;SDS011;4985;49.092;8.542;2024-03-23T09:12:30;5.43;;;2.00;;
9892;SDS011;4985;49.092;8.542;2024-03-23T09:14:55;4.67;;;1.90;;
9892;SDS011;4985;49.092;8.542;2024-03-23T09:17:20;1.47;;;1.10;;
9892;SDS011;4985;49.092;8.542;2024-03-23T09:19:46;4.53;;;1.57;;
9892;SDS011;4985;49.092;8.542;2024-03-23T09:22:11;2.80;;;1.70;;
9892;SDS011;4985;49.092;8.542;2024-03-23T09:24:36;2.20;;;1.70;;
9892;SDS011;4985;49.092;8.542;2024-03-23T09:27:03;5.20;;;2.10;;
9892;SDS011;4985;49.092;8.542;2024-03-23T09:29:29;6.70;;;2.70;;
9892;SDS011;4985;49.092;8.542;2024-03-23T09:31:54;3.03;;;1.70;;
9892;SDS011;4985;49.092;8.542;2024-03-23T09:34:20;4.60;;;2.20;;
9892;SDS011;4985;49.092;8.542;2024-03-23T09:36:45;3.93;;;2.37;;
9892;SDS011;4985;49.092;8.542;2024-03-23T09:39:10;5.60;;;1.80;;
9892;SDS011;4985;49.092;8.542;2024-03-23T09:41:36;3.70;;;1.80;;
9892;SDS011;4985;49.092;8.542;2024-03-23T09:44:01;4.20;;;1.87;;
9892;SDS011;4985;49.092;8.542;2024-03-23T09:46:27;3.40;;;1.60;;
9892;SDS011;4985;49.092;8.542;2024-03-23T09:48:53;5.17;;;2.23;;
9892;SDS011;4985;49.092;8.542;2024-03-23T09:51:21;6.00;;;2.10;;
9892;SDS011;4985;49.092;8.542;2024-03-23T09:53:46;4.70;;;2.30;;
9892;SDS011;4985;49.092;8.542;2024-03-23T09:56:11;8.13;;;1.97;;
9892;SDS011;4985;49.092;8.542;2024-03-23T09:58:37;3.00;;;2.07;;
9892;SDS011;4985;49.092;8.542;2024-03-23T10:01:02;3.80;;;1.50;;
9892;SDS011;4985;49.092;8.542;2024-03-23T10:03:28;4.80;;;2.10;;
9892;SDS011;4985;49.092;8.542;2024-03-23T10:06:00;5.07;;;2.60;;
9892;SDS011;4985;49.092;8.542;2024-03-23T10:08:27;3.07;;;2.00;;
9892;SDS011;4985;49.092;8.542;2024-03-23T10:10:54;6.90;;;2.77;;
9892;SDS011;4985;49.092;8.542;2024-03-23T10:13:28;4.53;;;2.30;;
9892;SDS011;4985;49.092;8.542;2024-03-23T10:15:57;4.50;;;1.90;;
9892;SDS011;4985;49.092;8.542;2024-03-23T10:18:23;6.80;;;2.50;;
9892;SDS011;4985;49.092;8.542;2024-03-23T10:21:06;5.37;;;2.47;;
9892;SDS011;4985;49.092;8.542;2024-03-23T10:23:33;3.77;;;1.93;;
9892;SDS011;4985;49.092;8.542;2024-03-23T10:28:53;2.60;;;1.87;;
9892;SDS011;4985;49.092;8.542;2024-03-23T10:31:19;4.33;;;1.90;;
9892;SDS011;4985;49.092;8.542;2024-03-23T10:33:45;5.40;;;2.30;;
9892;SDS011;4985;49.092;8.542;2024-03-23T10:36:12;2.07;;;1.70;;
9892;SDS011;4985;49.092;8.542;2024-03-23T10:38:39;4.23;;;1.93;;
9892;SDS011;4985;49.092;8.542;2024-03-23T10:41:07;4.33;;;1.90;;
9892;SDS011;4985;49.092;8.542;2024-03-23T10:43:34;4.00;;;2.00;;
9892;SDS011;4985;49.092;8.542;2024-03-23T10:46:01;3.43;;;1.50;;
9892;SDS011;4985;49.092;8.542;2024-03-23T10:48:27;5.23;;;2.50;;
9892;SDS011;4985;49.092;8.542;2024-03-23T10:50:53;4.47;;;2.03;;
9892;SDS011;4985;49.092;8.542;2024-03-23T10:53:19;8.10;;;2.97;;
9892;SDS011;4985;49.092;8.542;2024-03-23T10:55:49;5.53;;;2.80;;
9892;SDS011;4985;49.092;8.542;2024-03-23T10:58:15;5.90;;;3.47;;
9892;SDS011;4985;49.092;8.542;2024-03-23T11:00:44;4.23;;;2.13;;
9892;SDS011;4985;49.092;8.542;2024-03-23T11:06:10;3.77;;;2.10;;
9892;SDS011;4985;49.092;8.542;2024-03-23T11:09:01;3.27;;;1.93;;
9892;SDS011;4985;49.092;8.542;2024-03-23T11:11:26;5.23;;;2.27;;
9892;SDS011;4985;49.092;8.542;2024-03-23T11:13:53;5.63;;;2.67;;
9892;SDS011;4985;49.092;8.542;2024-03-23T11:16:23;5.27;;;2.50;;
9892;SDS011;4985;49.092;8.542;2024-03-23T11:18:49;4.40;;;2.33;;
9892;SDS011;4985;49.092;8.542;2024-03-23T11:24:17;5.73;;;2.67;;
9892;SDS011;4985;49.092;8.542;2024-03-23T11:26:43;3.70;;;2.20;;
9892;SDS011;4985;49.092;8.542;2024-03-23T11:29:12;3.23;;;1.87;;
9892;SDS011;4985;49.092;8.542;2024-03-23T11:31:39;5.33;;;2.40;;
9892;SDS011;4985;49.092;8.542;2024-03-23T11:34:14;5.03;;;2.10;;
9892;SDS011;4985;49.092;8.542;2024-03-23T11:36:41;3.43;;;1.67;;
9892;SDS011;4985;49.092;8.542;2024-03-23T11:39:16;4.47;;;2.10;;
9892;SDS011;4985;49.092;8.542;2024-03-23T11:41:48;4.90;;;1.90;;
9892;SDS011;4985;49.092;8.542;2024-03-23T11:44:16;3.27;;;1.70;;
9892;SDS011;4985;49.092;8.542;2024-03-23T11:46:42;3.57;;;1.93;;
9892;SDS011;4985;49.092;8.542;2024-03-23T11:49:19;3.80;;;1.87;;
9892;SDS011;4985;49.092;8.542;2024-03-23T11:51:46;2.77;;;1.53;;
9892;SDS011;4985;49.092;8.542;2024-03-23T11:54:12;3.77;;;1.93;;
9892;SDS011;4985;49.092;8.542;2024-03-23T11:56:38;3.93;;;2.40;;
9892;SDS011;4985;49.092;8.542;2024-03-23T11:59:03;3.50;;;1.70;;
9892;SDS011;4985;49.092;8.542;2024-03-23T12:01:29;5.03;;;1.97;;
9892;SDS011;4985;49.092;8.542;2024-03-23T12:03:54;3.70;;;2.20;;
9892;SDS011;4985;49.092;8.542;2024-03-23T12:06:20;3.80;;;2.83;;
9892;SDS011;4985;49.092;8.542;2024-03-23T12:08:45;6.17;;;2.43;;
9892;SDS011;4985;49.092;8.542;2024-03-23T12:11:11;3.73;;;2.00;;
9892;SDS011;4985;49.092;8.542;2024-03-23T12:13:38;2.33;;;1.70;;
9892;SDS011;4985;49.092;8.542;2024-03-23T12:16:13;4.17;;;2.10;;
9892;SDS011;4985;49.092;8.542;2024-03-23T12:18:40;5.20;;;1.93;;
9892;SDS011;4985;49.092;8.542;2024-03-23T12:21:07;5.13;;;2.27;;
9892;SDS011;4985;49.092;8.542;2024-03-23T12:23:33;6.53;;;2.20;;
9892;SDS011;4985;49.092;8.542;2024-03-23T12:25:58;3.33;;;1.63;;
9892;SDS011;4985;49.092;8.542;2024-03-23T12:28:24;4.87;;;1.97;;
9892;SDS011;4985;49.092;8.542;2024-03-23T12:30:50;6.83;;;2.10;;
9892;SDS011;4985;49.092;8.542;2024-03-23T12:33:17;4.97;;;2.10;;
9892;SDS011;4985;49.092;8.542;2024-03-23T12:35:42;5.17;;;2.30;;
9892;SDS011;4985;49.092;8.542;2024-03-23T12:38:08;4.97;;;1.83;;
9892;SDS011;4985;49.092;8.542;2024-03-23T12:40:33;3.60;;;1.90;;
9892;SDS011;4985;49.092;8.542;2024-03-23T12:42:58;5.33;;;2.40;;
9892;SDS011;4985;49.092;8.542;2024-03-23T12:45:24;3.97;;;1.50;;
9892;SDS011;4985;49.092;8.542;2024-03-23T12:47:49;3.63;;;1.77;;
9892;SDS011;4985;49.092;8.542;2024-03-23T12:50:17;4.53;;;2.03;;
9892;SDS011;4985;49.092;8.542;2024-03-23T12:52:43;4.30;;;2.03;;
9892;SDS011;4985;49.092;8.542;2024-03-23T12:55:08;4.30;;;1.60;;
9892;SDS011;4985;49.092;8.542;2024-03-23T12:57:33;4.50;;;2.10;;
9892;SDS011;4985;49.092;8.542;2024-03-23T12:59:59;6.67;;;1.90;;
9892;SDS011;4985;49.092;8.542;2024-03-23T13:02:25;6.83;;;2.27;;
9892;SDS011;4985;49.092;8.542;2024-03-23T13:04:51;4.90;;;2.37;;
9892;SDS011;4985;49.092;8.542;2024-03-23T13:07:17;5.87;;;2.50;;
9892;SDS011;4985;49.092;8.542;2024-03-23T13:09:43;5.63;;;2.07;;
9892;SDS011;4985;49.092;8.542;2024-03-23T13:12:09;4.30;;;2.10;;
9892;SDS011;4985;49.092;8.542;2024-03-23T13:14:37;4.10;;;2.13;;
9892;SDS011;4985;49.092;8.542;2024-03-23T13:17:02;4.80;;;2.23;;
9892;SDS011;4985;49.092;8.542;2024-03-23T13:19:28;3.40;;;1.17;;
9892;SDS011;4985;49.092;8.542;2024-03-23T13:21:56;1.17;;;0.90;;
9892;SDS011;4985;49.092;8.542;2024-03-23T13:24:23;1.93;;;0.97;;
9892;SDS011;4985;49.092;8.542;2024-03-23T13:26:49;2.33;;;1.10;;
9892;SDS011;4985;49.092;8.542;2024-03-23T13:29:21;1.70;;;0.83;;
9892;SDS011;4985;49.092;8.542;2024-03-23T13:31:47;2.27;;;1.07;;
9892;SDS011;4985;49.092;8.542;2024-03-23T13:34:14;3.30;;;1.27;;
9892;SDS011;4985;49.092;8.542;2024-03-23T13:36:40;3.17;;;0.90;;
9892;SDS011;4985;49.092;8.542;2024-03-23T13:39:06;1.40;;;1.00;;
9892;SDS011;4985;49.092;8.542;2024-03-23T13:41:36;2.30;;;0.90;;
9892;SDS011;4985;49.092;8.542;2024-03-23T13:44:11;1.63;;;1.10;;
9892;SDS011;4985;49.092;8.542;2024-03-23T13:46:38;2.63;;;1.00;;
9892;SDS011;4985;49.092;8.542;2024-03-23T13:49:04;2.57;;;1.30;;
9892;SDS011;4985;49.092;8.542;2024-03-23T13:51:31;3.37;;;1.10;;
9892;SDS011;4985;49.092;8.542;2024-03-23T13:53:56;1.13;;;0.80;;
9892;SDS011;4985;49.092;8.542;2024-03-23T13:56:22;2.17;;;1.33;;
9892;SDS011;4985;49.092;8.542;2024-03-23T13:58:48;2.27;;;1.30;;
9892;SDS011;4985;49.092;8.542;2024-03-23T14:01:14;1.43;;;0.93;;
9892;SDS011;4985;49.092;8.542;2024-03-23T14:03:40;3.73;;;0.90;;
9892;SDS011;4985;49.092;8.542;2024-03-23T14:06:06;2.03;;;1.10;;
9892;SDS011;4985;49.092;8.542;2024-03-23T14:08:33;2.67;;;1.10;;
9892;SDS011;4985;49.092;8.542;2024-03-23T14:11:00;3.83;;;1.20;;
9892;SDS011;4985;49.092;8.542;2024-03-23T14:13:27;3.87;;;1.20;;
9892;SDS011;4985;49.092;8.542;2024-03-23T14:15:55;1.43;;;1.20;;
9892;SDS011;4985;49.092;8.542;2024-03-23T14:18:21;2.73;;;1.40;;
9892;SDS011;4985;49.092;8.542;2024-03-23T14:20:51;4.20;;;1.63;;
9892;SDS011;4985;49.092;8.542;2024-03-23T14:23:17;2.73;;;1.30;;
9892;SDS011;4985;49.092;8.542;2024-03-23T14:25:42;1.87;;;1.10;;
9892;SDS011;4985;49.092;8.542;2024-03-23T14:28:08;2.70;;;1.17;;
9892;SDS011;4985;49.092;8.542;2024-03-23T14:30:39;2.50;;;1.27;;
9892;SDS011;4985;49.092;8.542;2024-03-23T14:33:08;1.73;;;1.07;;
9892;SDS011;4985;49.092;8.542;2024-03-23T14:35:34;1.43;;;0.90;;
9892;SDS011;4985;49.092;8.542;2024-03-23T14:37:59;2.60;;;1.10;;
9892;SDS011;4985;49.092;8.542;2024-03-23T14:40:24;1.30;;;0.97;;
9892;SDS011;4985;49.092;8.542;2024-03-23T14:42:53;1.93;;;1.03;;
9892;SDS011;4985;49.092;8.542;2024-03-23T14:45:20;2.10;;;0.97;;
9892;SDS011;4985;49.092;8.542;2024-03-23T14:47:46;1.80;;;0.93;;
9892;SDS011;4985;49.092;8.542;2024-03-23T14:50:11;3.27;;;1.10;;
9892;SDS011;4985;49.092;8.542;2024-03-23T14:52:41;1.17;;;0.70;;
9892;SDS011;4985;49.092;8.542;2024-03-23T14:55:07;0.87;;;0.70;;
9892;SDS011;4985;49.092;8.542;2024-03-23T14:57:34;1.00;;;0.80;;
9892;SDS011;4985;49.092;8.542;2024-03-23T15:00:00;2.13;;;0.90;;
9892;SDS011;4985;49.092;8.542;2024-03-23T15:02:25;2.43;;;0.87;;
9892;SDS011;4985;49.092;8.542;2024-03-23T15:04:52;1.77;;;1.13;;
9892;SDS011;4985;49.092;8.542;2024-03-23T15:07:19;1.37;;;0.77;;
9892;SDS011;4985;49.092;8.542;2024-03-23T15:09:44;1.07;;;0.70;;
9892;SDS011;4985;49.092;8.542;2024-03-23T15:12:09;2.60;;;1.07;;
9892;SDS011;4985;49.092;8.542;2024-03-23T15:14:35;2.50;;;1.27;;
9892;SDS011;4985;49.092;8.542;2024-03-23T15:17:00;3.43;;;1.00;;
9892;SDS011;4985;49.092;8.542;2024-03-23T15:19:29;1.90;;;1.00;;
9892;SDS011;4985;49.092;8.542;2024-03-23T15:21:54;2.60;;;1.20;;
9892;SDS011;4985;49.092;8.542;2024-03-23T15:24:20;3.90;;;1.00;;
9892;SDS011;4985;49.092;8.542;2024-03-23T15:26:45;1.23;;;1.00;;
9892;SDS011;4985;49.092;8.542;2024-03-23T15:29:11;3.00;;;1.30;;
9892;SDS011;4985;49.092;8.542;2024-03-23T15:31:40;1.70;;;1.20;;
9892;SDS011;4985;49.092;8.542;2024-03-23T15:34:05;3.20;;;1.40;;
9892;SDS011;4985;49.092;8.542;2024-03-23T15:36:34;2.37;;;1.20;;
9892;SDS011;4985;49.092;8.542;2024-03-23T15:39:00;2.17;;;1.20;;
9892;SDS011;4985;49.092;8.542;2024-03-23T15:41:25;2.13;;;1.43;;
9892;SDS011;4985;49.092;8.542;2024-03-23T15:43:51;3.17;;;1.53;;
9892;SDS011;4985;49.092;8.542;2024-03-23T15:46:17;1.73;;;0.90;;
9892;SDS011;4985;49.092;8.542;2024-03-23T15:48:44;1.47;;;1.00;;
9892;SDS011;4985;49.092;8.542;2024-03-23T15:51:11;4.97;;;2.40;;
9892;SDS011;4985;49.092;8.542;2024-03-23T15:53:37;2.83;;;1.60;;
9892;SDS011;4985;49.092;8.542;2024-03-23T15:56:03;2.37;;;1.00;;
9892;SDS011;4985;49.092;8.542;2024-03-23T15:58:29;1.87;;;1.00;;
9892;SDS011;4985;49.092;8.542;2024-03-23T16:00:56;2.13;;;0.90;;
9892;SDS011;4985;49.092;8.542;2024-03-23T16:03:26;4.63;;;0.90;;
9892;SDS011;4985;49.092;8.542;2024-03-23T16:05:56;2.17;;;1.00;;
9892;SDS011;4985;49.092;8.542;2024-03-23T16:08:22;1.67;;;1.10;;
9892;SDS011;4985;49.092;8.542;2024-03-23T16:10:49;2.10;;;0.97;;
9892;SDS011;4985;49.092;8.542;2024-03-23T16:13:14;2.53;;;1.10;;